sensor_id;sensor_type;location;lat;lon;timestamp;temperature;humidity
3256;DHT22;1640;48.504;9.224;2024-01-27T00:01:48;2.40;99.90
3256;DHT22;1640;48.504;9.224;2024-01-27T00:04:15;2.30;99.90
3256;DHT22;1640;48.504;9.224;2024-01-27T00:06:43;2.30;99.90
3256;DHT22;1640;48.504;9.224;2024-01-27T00:09:10;2.30;99.90
3256;DHT22;1640;48.504;9.224;2024-01-27T00:11:39;2.20;99.90
3256;DHT22;1640;48.504;9.224;2024-01-27T00:14:06;2.20;99.90
3256;DHT22;1640;48.504;9.224;2024-01-27T00:16:33;2.10;99.90
3256;DHT22;1640;48.504;9.224;2024-01-27T00:19:00;2.10;99.90
3256;DHT22;1640;48.504;9.224;2024-01-27T00:21:28;2.10;99.90
3256;DHT22;1640;48.504;9.224;2024-01-27T00:23:55;2.00;99.90
3256;DHT22;1640;48.504;9.224;2024-01-27T00:26:29;2.00;99.90
3256;DHT22;1640;48.504;9.224;2024-01-27T00:28:58;2.00;99.90
3256;DHT22;1640;48.504;9.224;2024-01-27T00:31:25;1.90;99.90
3256;DHT22;1640;48.504;9.224;2024-01-27T00:33:53;1.90;99.90
3256;DHT22;1640;48.504;9.224;2024-01-27T00:36:20;1.90;99.90
3256;DHT22;1640;48.504;9.224;2024-01-27T00:38:47;1.80;99.90
3256;DHT22;1640;48.504;9.224;2024-01-27T00:41:18;1.80;99.90
3256;DHT22;1640;48.504;9.224;2024-01-27T00:43:46;1.80;99.90
3256;DHT22;1640;48.504;9.224;2024-01-27T00:46:15;1.80;99.90
3256;DHT22;1640;48.504;9.224;2024-01-27T00:48:42;1.70;99.90
3256;DHT22;1640;48.504;9.224;2024-01-27T00:51:09;1.70;99.90
3256;DHT22;1640;48.504;9.224;2024-01-27T00:53:37;1.70;99.90
3256;DHT22;1640;48.504;9.224;2024-01-27T00:56:05;1.60;99.90
3256;DHT22;1640;48.504;9.224;2024-01-27T00:58:33;1.60;99.90
3256;DHT22;1640;48.504;9.224;2024-01-27T01:01:01;1.60;99.90
3256;DHT22;1640;48.504;9.224;2024-01-27T01:03:29;1.60;99.90
3256;DHT22;1640;48.504;9.224;2024-01-27T01:05:57;1.60;99.90
3256;DHT22;1640;48.504;9.224;2024-01-27T01:08:25;1.60;99.90
3256;DHT22;1640;48.504;9.224;2024-01-27T01:10:52;1.50;99.90
3256;DHT22;1640;48.504;9.224;2024-01-27T01:13:20;1.50;99.90
3256;DHT22;1640;48.504;9.224;2024-01-27T01:15:47;1.50;99.90
3256;DHT22;1640;48.504;9.224;2024-01-27T01:18:15;1.40;99.90
3256;DHT22;1640;48.504;9.224;2024-01-27T01:20:44;1.40;99.90
3256;DHT22;1640;48.504;9.224;2024-01-27T01:23:12;1.30;99.90
3256;DHT22;1640;48.504;9.224;2024-01-27T01:25:39;1.30;99.90
3256;DHT22;1640;48.504;9.224;2024-01-27T01:28:06;1.30;99.90
3256;DHT22;1640;48.504;9.224;2024-01-27T01:30:34;1.30;99.90
3256;DHT22;1640;48.504;9.224;2024-01-27T01:33:02;1.20;99.90
3256;DHT22;1640;48.504;9.224;2024-01-27T01:35:29;1.20;99.90
3256;DHT22;1640;48.504;9.224;2024-01-27T01:37:58;1.20;99.90
3256;DHT22;1640;48.504;9.224;2024-01-27T01:40:25;1.20;99.90
3256;DHT22;1640;48.504;9.224;2024-01-27T01:42:53;1.20;99.90
3256;DHT22;1640;48.504;9.224;2024-01-27T01:45:20;1.10;99.90
3256;DHT22;1640;48.504;9.224;2024-01-27T01:47:48;1.10;99.90
3256;DHT22;1640;48.504;9.224;2024-01-27T01:50:17;1.00;99.90
3256;DHT22;1640;48.504;9.224;2024-01-27T01:52:44;1.00;99.90
3256;DHT22;1640;48.504;9.224;2024-01-27T01:55:14;0.90;99.90
3256;DHT22;1640;48.504;9.224;2024-01-27T01:57:43;0.90;99.90
3256;DHT22;1640;48.504;9.224;2024-01-27T02:00:12;0.90;99.90
3256;DHT22;1640;48.504;9.224;2024-01-27T02:02:39;0.90;99.90
3256;DHT22;1640;48.504;9.224;2024-01-27T02:05:07;0.90;99.90
3256;DHT22;1640;48.504;9.224;2024-01-27T02:07:36;0.90;99.90
3256;DHT22;1640;48.504;9.224;2024-01-27T02:10:04;0.90;99.90
3256;DHT22;1640;48.504;9.224;2024-01-27T02:12:33;1.00;99.90
3256;DHT22;1640;48.504;9.224;2024-01-27T02:15:01;1.00;99.90
3256;DHT22;1640;48.504;9.224;2024-01-27T02:17:28;1.00;99.90
3256;DHT22;1640;48.504;9.224;2024-01-27T02:19:56;1.00;99.90
3256;DHT22;1640;48.504;9.224;2024-01-27T02:22:23;1.00;99.90
3256;DHT22;1640;48.504;9.224;2024-01-27T02:24:51;1.00;99.90
3256;DHT22;1640;48.504;9.224;2024-01-27T02:27:19;1.00;99.90
3256;DHT22;1640;48.504;9.224;2024-01-27T02:29:46;0.90;99.90
3256;DHT22;1640;48.504;9.224;2024-01-27T02:32:13;0.90;99.90
3256;DHT22;1640;48.504;9.224;2024-01-27T02:34:41;0.80;99.90
3256;DHT22;1640;48.504;9.224;2024-01-27T02:37:09;0.80;99.90
3256;DHT22;1640;48.504;9.224;2024-01-27T02:39:36;0.70;99.90
3256;DHT22;1640;48.504;9.224;2024-01-27T02:42:05;0.70;99.90
3256;DHT22;1640;48.504;9.224;2024-01-27T02:44:33;0.70;99.90
3256;DHT22;1640;48.504;9.224;2024-01-27T02:47:02;0.80;99.90
3256;DHT22;1640;48.504;9.224;2024-01-27T02:49:29;0.80;99.90
3256;DHT22;1640;48.504;9.224;2024-01-27T02:51:57;0.70;99.90
3256;DHT22;1640;48.504;9.224;2024-01-27T02:54:24;0.70;99.90
3256;DHT22;1640;48.504;9.224;2024-01-27T02:56:53;0.70;99.90
3256;DHT22;1640;48.504;9.224;2024-01-27T02:59:22;0.60;99.90
3256;DHT22;1640;48.504;9.224;2024-01-27T03:01:49;0.60;99.90
3256;DHT22;1640;48.504;9.224;2024-01-27T03:04:17;0.60;99.90
3256;DHT22;1640;48.504;9.224;2024-01-27T03:06:44;0.60;99.90
3256;DHT22;1640;48.504;9.224;2024-01-27T03:09:12;0.50;99.90
3256;DHT22;1640;48.504;9.224;2024-01-27T03:11:39;0.40;99.90
3256;DHT22;1640;48.504;9.224;2024-01-27T03:14:07;0.40;99.90
3256;DHT22;1640;48.504;9.224;2024-01-27T03:16:36;0.40;99.90
3256;DHT22;1640;48.504;9.224;2024-01-27T03:19:03;0.30;99.90
3256;DHT22;1640;48.504;9.224;2024-01-27T03:21:32;0.30;99.90
3256;DHT22;1640;48.504;9.224;2024-01-27T03:23:59;0.30;99.90
3256;DHT22;1640;48.504;9.224;2024-01-27T03:26:27;0.20;99.90
3256;DHT22;1640;48.504;9.224;2024-01-27T03:28:55;0.20;99.90
3256;DHT22;1640;48.504;9.224;2024-01-27T03:31:22;0.10;99.90
3256;DHT22;1640;48.504;9.224;2024-01-27T03:33:51;0.10;99.90
3256;DHT22;1640;48.504;9.224;2024-01-27T03:36:18;0.10;99.90
3256;DHT22;1640;48.504;9.224;2024-01-27T03:38:46;0.10;99.90
3256;DHT22;1640;48.504;9.224;2024-01-27T03:41:13;0.00;99.90
3256;DHT22;1640;48.504;9.224;2024-01-27T03:43:41;0.00;99.90
3256;DHT22;1640;48.504;9.224;2024-01-27T03:46:08;0.10;99.90
3256;DHT22;1640;48.504;9.224;2024-01-27T03:48:36;0.00;99.90
3256;DHT22;1640;48.504;9.224;2024-01-27T03:51:05;0.00;99.90
3256;DHT22;1640;48.504;9.224;2024-01-27T03:53:33;0.00;99.90
3256;DHT22;1640;48.504;9.224;2024-01-27T03:56:00;0.00;99.90
3256;DHT22;1640;48.504;9.224;2024-01-27T03:58:31;0.10;99.90
3256;DHT22;1640;48.504;9.224;2024-01-27T04:00:59;0.20;99.90
3256;DHT22;1640;48.504;9.224;2024-01-27T04:03:26;0.30;99.90
3256;DHT22;1640;48.504;9.224;2024-01-27T04:05:54;0.40;99.90
3256;DHT22;1640;48.504;9.224;2024-01-27T04:08:23;0.50;99.90
3256;DHT22;1640;48.504;9.224;2024-01-27T04:10:51;0.50;99.90
3256;DHT22;1640;48.504;9.224;2024-01-27T04:13:18;0.60;99.90
3256;DHT22;1640;48.504;9.224;2024-01-27T04:15:46;0.60;99.90
3256;DHT22;1640;48.504;9.224;2024-01-27T04:18:13;0.70;99.90
3256;DHT22;1640;48.504;9.224;2024-01-27T04:20:41;0.70;99.90
3256;DHT22;1640;48.504;9.224;2024-01-27T04:23:10;0.90;99.90
3256;DHT22;1640;48.504;9.224;2024-01-27T04:25:39;0.90;99.90
3256;DHT22;1640;48.504;9.224;2024-01-27T04:28:07;0.90;99.90
3256;DHT22;1640;48.504;9.224;2024-01-27T04:30:36;0.90;99.90
3256;DHT22;1640;48.504;9.224;2024-01-27T04:33:04;0.90;99.90
3256;DHT22;1640;48.504;9.224;2024-01-27T04:35:33;1.00;99.90
3256;DHT22;1640;48.504;9.224;2024-01-27T04:38:01;1.00;99.90
3256;DHT22;1640;48.504;9.224;2024-01-27T04:40:29;1.00;99.90
3256;DHT22;1640;48.504;9.224;2024-01-27T04:42:58;1.00;99.90
3256;DHT22;1640;48.504;9.224;2024-01-27T04:45:25;1.00;99.90
3256;DHT22;1640;48.504;9.224;2024-01-27T04:47:53;0.90;99.90
3256;DHT22;1640;48.504;9.224;2024-01-27T04:50:21;0.90;99.90
3256;DHT22;1640;48.504;9.224;2024-01-27T04:52:48;0.80;99.90
3256;DHT22;1640;48.504;9.224;2024-01-27T04:55:16;0.80;99.90
3256;DHT22;1640;48.504;9.224;2024-01-27T04:57:43;0.80;99.90
3256;DHT22;1640;48.504;9.224;2024-01-27T05:00:14;0.70;99.90
3256;DHT22;1640;48.504;9.224;2024-01-27T05:02:42;0.60;99.90
3256;DHT22;1640;48.504;9.224;2024-01-27T05:05:09;0.60;99.90
3256;DHT22;1640;48.504;9.224;2024-01-27T05:07:38;0.60;99.90
3256;DHT22;1640;48.504;9.224;2024-01-27T05:10:06;0.60;99.90
3256;DHT22;1640;48.504;9.224;2024-01-27T05:12:35;0.60;99.90
3256;DHT22;1640;48.504;9.224;2024-01-27T05:15:03;0.50;99.90
3256;DHT22;1640;48.504;9.224;2024-01-27T05:17:33;0.40;99.90
3256;DHT22;1640;48.504;9.224;2024-01-27T05:20:00;0.40;99.90
3256;DHT22;1640;48.504;9.224;2024-01-27T05:22:30;0.40;99.90
3256;DHT22;1640;48.504;9.224;2024-01-27T05:24:57;0.30;99.90
3256;DHT22;1640;48.504;9.224;2024-01-27T05:27:24;0.30;99.90
3256;DHT22;1640;48.504;9.224;2024-01-27T05:29:51;0.30;99.90
3256;DHT22;1640;48.504;9.224;2024-01-27T05:32:18;0.20;99.90
3256;DHT22;1640;48.504;9.224;2024-01-27T05:34:47;0.10;99.90
3256;DHT22;1640;48.504;9.224;2024-01-27T05:37:15;0.10;99.90
3256;DHT22;1640;48.504;9.224;2024-01-27T05:39:42;0.00;99.90
3256;DHT22;1640;48.504;9.224;2024-01-27T05:42:10;-0.10;99.90
3256;DHT22;1640;48.504;9.224;2024-01-27T05:44:37;-0.10;99.90
3256;DHT22;1640;48.504;9.224;2024-01-27T05:47:06;-0.10;99.90
3256;DHT22;1640;48.504;9.224;2024-01-27T05:49:36;-0.20;99.90
3256;DHT22;1640;48.504;9.224;2024-01-27T05:52:05;-0.20;99.90
3256;DHT22;1640;48.504;9.224;2024-01-27T05:54:33;-0.30;99.90
3256;DHT22;1640;48.504;9.224;2024-01-27T05:57:00;-0.30;99.90
3256;DHT22;1640;48.504;9.224;2024-01-27T05:59:29;-0.40;99.90
3256;DHT22;1640;48.504;9.224;2024-01-27T06:01:56;-0.40;99.90
3256;DHT22;1640;48.504;9.224;2024-01-27T06:04:24;-0.50;99.90
3256;DHT22;1640;48.504;9.224;2024-01-27T06:06:51;-0.50;99.90
3256;DHT22;1640;48.504;9.224;2024-01-27T06:09:20;-0.50;99.90
3256;DHT22;1640;48.504;9.224;2024-01-27T06:11:48;-0.60;99.90
3256;DHT22;1640;48.504;9.224;2024-01-27T06:14:15;-0.60;99.90
3256;DHT22;1640;48.504;9.224;2024-01-27T06:16:42;-0.60;99.90
3256;DHT22;1640;48.504;9.224;2024-01-27T06:19:10;-0.60;99.90
3256;DHT22;1640;48.504;9.224;2024-01-27T06:21:37;-0.60;99.90
3256;DHT22;1640;48.504;9.224;2024-01-27T06:24:05;-0.70;99.90
3256;DHT22;1640;48.504;9.224;2024-01-27T06:26:34;-0.70;99.90
3256;DHT22;1640;48.504;9.224;2024-01-27T06:29:02;-0.70;99.90
3256;DHT22;1640;48.504;9.224;2024-01-27T06:31:30;-0.60;99.90
3256;DHT22;1640;48.504;9.224;2024-01-27T06:33:57;-0.50;99.90
3256;DHT22;1640;48.504;9.224;2024-01-27T06:36:25;-0.50;99.90
3256;DHT22;1640;48.504;9.224;2024-01-27T06:38:53;-0.50;99.90
3256;DHT22;1640;48.504;9.224;2024-01-27T06:41:21;-0.50;99.90
3256;DHT22;1640;48.504;9.224;2024-01-27T06:43:49;-0.60;99.90
3256;DHT22;1640;48.504;9.224;2024-01-27T06:46:17;-0.60;99.90
3256;DHT22;1640;48.504;9.224;2024-01-27T06:48:44;-0.70;99.90
3256;DHT22;1640;48.504;9.224;2024-01-27T06:51:12;-0.70;99.90
3256;DHT22;1640;48.504;9.224;2024-01-27T06:53:39;-0.70;99.90
3256;DHT22;1640;48.504;9.224;2024-01-27T06:56:07;-0.70;99.90
3256;DHT22;1640;48.504;9.224;2024-01-27T06:58:35;-0.70;99.90
3256;DHT22;1640;48.504;9.224;2024-01-27T07:01:04;-0.70;99.90
3256;DHT22;1640;48.504;9.224;2024-01-27T07:03:33;-0.80;99.90
3256;DHT22;1640;48.504;9.224;2024-01-27T07:06:01;-0.80;99.90
3256;DHT22;1640;48.504;9.224;2024-01-27T07:08:28;-0.80;99.90
3256;DHT22;1640;48.504;9.224;2024-01-27T07:10:56;-0.70;99.90
3256;DHT22;1640;48.504;9.224;2024-01-27T07:13:23;-0.70;99.90
3256;DHT22;1640;48.504;9.224;2024-01-27T07:15:52;-0.70;99.90
3256;DHT22;1640;48.504;9.224;2024-01-27T07:18:21;-0.70;99.90
3256;DHT22;1640;48.504;9.224;2024-01-27T07:20:49;-0.70;99.90
3256;DHT22;1640;48.504;9.224;2024-01-27T07:23:17;-0.70;99.90
3256;DHT22;1640;48.504;9.224;2024-01-27T07:25:44;-0.60;99.90
3256;DHT22;1640;48.504;9.224;2024-01-27T07:28:12;-0.60;99.90
3256;DHT22;1640;48.504;9.224;2024-01-27T07:30:41;-0.50;99.90
3256;DHT22;1640;48.504;9.224;2024-01-27T07:33:09;-0.50;99.90
3256;DHT22;1640;48.504;9.224;2024-01-27T07:35:38;-0.50;99.90
3256;DHT22;1640;48.504;9.224;2024-01-27T07:38:05;-0.50;99.90
3256;DHT22;1640;48.504;9.224;2024-01-27T07:40:34;-0.50;99.90
3256;DHT22;1640;48.504;9.224;2024-01-27T07:43:02;-0.50;99.90
3256;DHT22;1640;48.504;9.224;2024-01-27T07:45:29;-0.40;99.90
3256;DHT22;1640;48.504;9.224;2024-01-27T07:47:57;-0.50;99.90
3256;DHT22;1640;48.504;9.224;2024-01-27T07:50:24;-0.50;99.90
3256;DHT22;1640;48.504;9.224;2024-01-27T07:52:53;-0.40;99.90
3256;DHT22;1640;48.504;9.224;2024-01-27T07:55:20;-0.50;99.90
3256;DHT22;1640;48.504;9.224;2024-01-27T07:57:48;-0.40;99.90
3256;DHT22;1640;48.504;9.224;2024-01-27T08:00:16;-0.40;99.90
3256;DHT22;1640;48.504;9.224;2024-01-27T08:02:44;-0.40;99.90
3256;DHT22;1640;48.504;9.224;2024-01-27T08:05:11;-0.40;99.90
3256;DHT22;1640;48.504;9.224;2024-01-27T08:07:39;-0.40;99.90
3256;DHT22;1640;48.504;9.224;2024-01-27T08:10:08;-0.40;99.90
3256;DHT22;1640;48.504;9.224;2024-01-27T08:12:37;-0.20;99.90
3256;DHT22;1640;48.504;9.224;2024-01-27T08:15:06;-0.20;99.90
3256;DHT22;1640;48.504;9.224;2024-01-27T08:17:33;-0.10;99.90
3256;DHT22;1640;48.504;9.224;2024-01-27T08:20:01;-0.10;99.90
3256;DHT22;1640;48.504;9.224;2024-01-27T08:22:29;0.00;99.90
3256;DHT22;1640;48.504;9.224;2024-01-27T08:24:57;0.00;99.90
3256;DHT22;1640;48.504;9.224;2024-01-27T08:27:26;0.10;99.90
3256;DHT22;1640;48.504;9.224;2024-01-27T08:29:53;0.10;99.90
3256;DHT22;1640;48.504;9.224;2024-01-27T08:32:21;0.00;99.90
3256;DHT22;1640;48.504;9.224;2024-01-27T08:34:48;0.10;99.90
3256;DHT22;1640;48.504;9.224;2024-01-27T08:37:18;0.00;99.90
3256;DHT22;1640;48.504;9.224;2024-01-27T08:39:45;0.00;99.90
3256;DHT22;1640;48.504;9.224;2024-01-27T08:42:13;0.00;99.90
3256;DHT22;1640;48.504;9.224;2024-01-27T08:44:42;0.10;99.90
3256;DHT22;1640;48.504;9.224;2024-01-27T08:47:10;0.10;99.90
3256;DHT22;1640;48.504;9.224;2024-01-27T08:49:37;0.10;99.90
3256;DHT22;1640;48.504;9.224;2024-01-27T08:52:05;0.20;99.90
3256;DHT22;1640;48.504;9.224;2024-01-27T08:54:32;0.30;99.90
3256;DHT22;1640;48.504;9.224;2024-01-27T08:57:00;0.30;99.90
3256;DHT22;1640;48.504;9.224;2024-01-27T08:59:28;0.40;99.90
3256;DHT22;1640;48.504;9.224;2024-01-27T09:01:57;0.40;99.90
3256;DHT22;1640;48.504;9.224;2024-01-27T09:04:24;0.40;99.90
3256;DHT22;1640;48.504;9.224;2024-01-27T09:06:52;0.40;99.90
3256;DHT22;1640;48.504;9.224;2024-01-27T09:09:19;0.50;99.90
3256;DHT22;1640;48.504;9.224;2024-01-27T09:11:46;0.50;99.90
3256;DHT22;1640;48.504;9.224;2024-01-27T09:14:14;0.50;99.90
3256;DHT22;1640;48.504;9.224;2024-01-27T09:16:42;0.60;99.90
3256;DHT22;1640;48.504;9.224;2024-01-27T09:19:13;0.60;99.90
3256;DHT22;1640;48.504;9.224;2024-01-27T09:21:40;0.60;99.90
3256;DHT22;1640;48.504;9.224;2024-01-27T09:24:08;0.70;99.90
3256;DHT22;1640;48.504;9.224;2024-01-27T09:26:35;0.70;99.90
3256;DHT22;1640;48.504;9.224;2024-01-27T09:29:03;0.70;99.90
3256;DHT22;1640;48.504;9.224;2024-01-27T09:31:30;0.80;99.90
3256;DHT22;1640;48.504;9.224;2024-01-27T09:33:58;0.80;99.90
3256;DHT22;1640;48.504;9.224;2024-01-27T09:36:28;0.80;99.90
3256;DHT22;1640;48.504;9.224;2024-01-27T09:38:55;0.80;99.90
3256;DHT22;1640;48.504;9.224;2024-01-27T09:41:23;0.80;99.90
3256;DHT22;1640;48.504;9.224;2024-01-27T09:43:51;0.80;99.90
3256;DHT22;1640;48.504;9.224;2024-01-27T09:46:21;0.70;99.90
3256;DHT22;1640;48.504;9.224;2024-01-27T09:48:48;0.70;99.90
3256;DHT22;1640;48.504;9.224;2024-01-27T09:51:16;0.70;99.90
3256;DHT22;1640;48.504;9.224;2024-01-27T09:53:45;0.80;99.90
3256;DHT22;1640;48.504;9.224;2024-01-27T09:56:13;0.70;99.90
3256;DHT22;1640;48.504;9.224;2024-01-27T09:58:44;0.90;99.90
3256;DHT22;1640;48.504;9.224;2024-01-27T10:01:12;1.10;99.90
3256;DHT22;1640;48.504;9.224;2024-01-27T10:03:40;1.30;99.90
3256;DHT22;1640;48.504;9.224;2024-01-27T10:06:10;1.50;99.90
3256;DHT22;1640;48.504;9.224;2024-01-27T10:08:37;1.40;99.90
3256;DHT22;1640;48.504;9.224;2024-01-27T10:11:08;1.40;99.90
3256;DHT22;1640;48.504;9.224;2024-01-27T10:13:36;1.10;99.90
3256;DHT22;1640;48.504;9.224;2024-01-27T10:16:04;1.00;99.90
3256;DHT22;1640;48.504;9.224;2024-01-27T10:18:33;1.00;99.90
3256;DHT22;1640;48.504;9.224;2024-01-27T10:21:05;1.00;99.90
3256;DHT22;1640;48.504;9.224;2024-01-27T10:23:39;1.20;99.90
3256;DHT22;1640;48.504;9.224;2024-01-27T10:26:10;1.30;99.90
3256;DHT22;1640;48.504;9.224;2024-01-27T10:28:38;1.40;99.90
3256;DHT22;1640;48.504;9.224;2024-01-27T10:31:09;1.50;99.90
3256;DHT22;1640;48.504;9.224;2024-01-27T10:33:36;1.60;99.90
3256;DHT22;1640;48.504;9.224;2024-01-27T10:36:05;1.70;99.90
3256;DHT22;1640;48.504;9.224;2024-01-27T10:38:36;1.70;99.90
3256;DHT22;1640;48.504;9.224;2024-01-27T10:41:08;1.70;99.90
3256;DHT22;1640;48.504;9.224;2024-01-27T10:43:38;1.80;99.90
3256;DHT22;1640;48.504;9.224;2024-01-27T10:46:06;2.00;99.90
3256;DHT22;1640;48.504;9.224;2024-01-27T10:48:35;2.10;99.90
3256;DHT22;1640;48.504;9.224;2024-01-27T10:51:07;2.20;99.90
3256;DHT22;1640;48.504;9.224;2024-01-27T10:53:35;2.30;99.90
3256;DHT22;1640;48.504;9.224;2024-01-27T10:56:04;2.30;99.90
3256;DHT22;1640;48.504;9.224;2024-01-27T10:58:36;2.40;99.90
3256;DHT22;1640;48.504;9.224;2024-01-27T11:01:08;2.60;99.90
3256;DHT22;1640;48.504;9.224;2024-01-27T11:03:38;2.70;99.90
3256;DHT22;1640;48.504;9.224;2024-01-27T11:06:07;3.00;99.90
3256;DHT22;1640;48.504;9.224;2024-01-27T11:08:35;3.10;99.90
3256;DHT22;1640;48.504;9.224;2024-01-27T11:11:03;3.20;99.90
3256;DHT22;1640;48.504;9.224;2024-01-27T11:13:32;3.30;99.90
3256;DHT22;1640;48.504;9.224;2024-01-27T11:16:01;3.40;99.90
3256;DHT22;1640;48.504;9.224;2024-01-27T11:18:29;3.50;99.90
3256;DHT22;1640;48.504;9.224;2024-01-27T11:20:58;3.70;99.90
3256;DHT22;1640;48.504;9.224;2024-01-27T11:23:32;3.80;99.90
3256;DHT22;1640;48.504;9.224;2024-01-27T11:26:03;3.90;99.90
3256;DHT22;1640;48.504;9.224;2024-01-27T11:28:31;4.00;99.90
3256;DHT22;1640;48.504;9.224;2024-01-27T11:31:02;4.10;99.90
3256;DHT22;1640;48.504;9.224;2024-01-27T11:33:31;4.20;99.90
3256;DHT22;1640;48.504;9.224;2024-01-27T11:36:02;4.30;99.90
3256;DHT22;1640;48.504;9.224;2024-01-27T11:38:31;4.40;99.90
3256;DHT22;1640;48.504;9.224;2024-01-27T11:40:59;4.40;99.90
3256;DHT22;1640;48.504;9.224;2024-01-27T11:43:27;4.50;99.90
3256;DHT22;1640;48.504;9.224;2024-01-27T11:45:56;4.60;99.90
3256;DHT22;1640;48.504;9.224;2024-01-27T11:48:23;4.60;99.90
3256;DHT22;1640;48.504;9.224;2024-01-27T11:51:05;4.70;99.90
3256;DHT22;1640;48.504;9.224;2024-01-27T11:53:34;4.60;99.90
3256;DHT22;1640;48.504;9.224;2024-01-27T11:56:01;4.70;99.90
3256;DHT22;1640;48.504;9.224;2024-01-27T11:58:29;4.90;99.90
3256;DHT22;1640;48.504;9.224;2024-01-27T12:00:57;4.90;99.90
3256;DHT22;1640;48.504;9.224;2024-01-27T12:03:25;5.00;99.90
3256;DHT22;1640;48.504;9.224;2024-01-27T12:05:53;5.10;99.90
3256;DHT22;1640;48.504;9.224;2024-01-27T12:08:22;5.10;0.70
3256;DHT22;1640;48.504;9.224;2024-01-27T12:10:49;5.10;1.70
3256;DHT22;1640;48.504;9.224;2024-01-27T12:13:17;5.10;99.90
3256;DHT22;1640;48.504;9.224;2024-01-27T12:15:44;5.20;4.10
3256;DHT22;1640;48.504;9.224;2024-01-27T12:18:12;5.30;1.20
3256;DHT22;1640;48.504;9.224;2024-01-27T12:20:39;5.40;3.30
3256;DHT22;1640;48.504;9.224;2024-01-27T12:23:08;5.50;99.90
3256;DHT22;1640;48.504;9.224;2024-01-27T12:25:36;5.50;7.50
3256;DHT22;1640;48.504;9.224;2024-01-27T12:28:05;5.50;8.00
3256;DHT22;1640;48.504;9.224;2024-01-27T12:30:33;5.40;8.50
3256;DHT22;1640;48.504;9.224;2024-01-27T12:33:01;5.40;4.00
3256;DHT22;1640;48.504;9.224;2024-01-27T12:35:29;5.40;0.60
3256;DHT22;1640;48.504;9.224;2024-01-27T12:37:59;5.40;2.80
3256;DHT22;1640;48.504;9.224;2024-01-27T12:40:28;5.50;10.00
3256;DHT22;1640;48.504;9.224;2024-01-27T12:42:57;5.60;8.70
3256;DHT22;1640;48.504;9.224;2024-01-27T12:45:24;5.60;10.90
3256;DHT22;1640;48.504;9.224;2024-01-27T12:47:52;5.80;14.00
3256;DHT22;1640;48.504;9.224;2024-01-27T12:50:19;5.80;17.50
3256;DHT22;1640;48.504;9.224;2024-01-27T12:52:46;5.70;15.10
3256;DHT22;1640;48.504;9.224;2024-01-27T12:55:14;5.60;13.50
3256;DHT22;1640;48.504;9.224;2024-01-27T12:57:42;5.70;10.60
3256;DHT22;1640;48.504;9.224;2024-01-27T13:00:12;5.70;10.20
3256;DHT22;1640;48.504;9.224;2024-01-27T13:02:41;5.80;13.00
3256;DHT22;1640;48.504;9.224;2024-01-27T13:05:09;5.90;9.10
3256;DHT22;1640;48.504;9.224;2024-01-27T13:07:36;5.90;12.00
3256;DHT22;1640;48.504;9.224;2024-01-27T13:10:04;6.10;15.70
3256;DHT22;1640;48.504;9.224;2024-01-27T13:12:32;6.20;18.80
3256;DHT22;1640;48.504;9.224;2024-01-27T13:14:59;6.30;20.20
3256;DHT22;1640;48.504;9.224;2024-01-27T13:17:28;6.30;23.70
3256;DHT22;1640;48.504;9.224;2024-01-27T13:19:56;6.40;24.70
3256;DHT22;1640;48.504;9.224;2024-01-27T13:22:23;6.50;24.60
3256;DHT22;1640;48.504;9.224;2024-01-27T13:24:51;6.50;25.80
3256;DHT22;1640;48.504;9.224;2024-01-27T13:27:18;6.50;29.60
3256;DHT22;1640;48.504;9.224;2024-01-27T13:29:46;6.60;35.20
3256;DHT22;1640;48.504;9.224;2024-01-27T13:32:13;6.60;39.80
3256;DHT22;1640;48.504;9.224;2024-01-27T13:34:42;6.60;38.00
3256;DHT22;1640;48.504;9.224;2024-01-27T13:37:10;6.70;45.90
3256;DHT22;1640;48.504;9.224;2024-01-27T13:39:38;6.60;46.30
3256;DHT22;1640;48.504;9.224;2024-01-27T13:42:05;6.60;45.90
3256;DHT22;1640;48.504;9.224;2024-01-27T13:44:33;6.60;47.40
3256;DHT22;1640;48.504;9.224;2024-01-27T13:47:02;6.60;47.50
3256;DHT22;1640;48.504;9.224;2024-01-27T13:49:31;6.70;44.10
3256;DHT22;1640;48.504;9.224;2024-01-27T13:52:00;6.70;47.10
3256;DHT22;1640;48.504;9.224;2024-01-27T13:54:27;6.80;46.30
3256;DHT22;1640;48.504;9.224;2024-01-27T13:56:55;6.80;47.20
3256;DHT22;1640;48.504;9.224;2024-01-27T13:59:23;6.90;50.60
3256;DHT22;1640;48.504;9.224;2024-01-27T14:01:51;7.00;50.20
3256;DHT22;1640;48.504;9.224;2024-01-27T14:04:19;7.00;49.70
3256;DHT22;1640;48.504;9.224;2024-01-27T14:06:46;7.00;50.80
3256;DHT22;1640;48.504;9.224;2024-01-27T14:09:15;7.00;50.10
3256;DHT22;1640;48.504;9.224;2024-01-27T14:11:43;7.00;50.60
3256;DHT22;1640;48.504;9.224;2024-01-27T14:14:11;7.00;50.10
3256;DHT22;1640;48.504;9.224;2024-01-27T14:16:39;7.10;50.80
3256;DHT22;1640;48.504;9.224;2024-01-27T14:19:07;7.00;53.50
3256;DHT22;1640;48.504;9.224;2024-01-27T14:21:34;7.00;54.00
3256;DHT22;1640;48.504;9.224;2024-01-27T14:24:03;7.00;55.00
3256;DHT22;1640;48.504;9.224;2024-01-27T14:26:33;7.00;52.30
3256;DHT22;1640;48.504;9.224;2024-01-27T14:29:01;7.10;53.10
3256;DHT22;1640;48.504;9.224;2024-01-27T14:31:29;7.10;55.10
3256;DHT22;1640;48.504;9.224;2024-01-27T14:33:56;7.10;58.20
3256;DHT22;1640;48.504;9.224;2024-01-27T14:36:24;7.00;57.80
3256;DHT22;1640;48.504;9.224;2024-01-27T14:38:52;7.00;57.50
3256;DHT22;1640;48.504;9.224;2024-01-27T14:41:20;6.90;57.80
3256;DHT22;1640;48.504;9.224;2024-01-27T14:43:49;6.90;58.50
3256;DHT22;1640;48.504;9.224;2024-01-27T14:46:17;7.00;60.40
3256;DHT22;1640;48.504;9.224;2024-01-27T14:48:45;6.90;60.60
3256;DHT22;1640;48.504;9.224;2024-01-27T14:51:12;6.90;60.60
3256;DHT22;1640;48.504;9.224;2024-01-27T14:53:40;6.80;59.50
3256;DHT22;1640;48.504;9.224;2024-01-27T14:56:07;6.70;58.50
3256;DHT22;1640;48.504;9.224;2024-01-27T14:58:35;6.80;59.20
3256;DHT22;1640;48.504;9.224;2024-01-27T15:01:04;6.70;58.80
3256;DHT22;1640;48.504;9.224;2024-01-27T15:03:31;6.70;57.70
3256;DHT22;1640;48.504;9.224;2024-01-27T15:05:59;6.70;56.20
3256;DHT22;1640;48.504;9.224;2024-01-27T15:08:27;6.70;57.10
3256;DHT22;1640;48.504;9.224;2024-01-27T15:10:55;6.70;56.10
3256;DHT22;1640;48.504;9.224;2024-01-27T15:13:22;6.70;56.20
3256;DHT22;1640;48.504;9.224;2024-01-27T15:15:50;6.70;54.80
3256;DHT22;1640;48.504;9.224;2024-01-27T15:18:19;6.80;58.90
3256;DHT22;1640;48.504;9.224;2024-01-27T15:20:48;6.70;56.90
3256;DHT22;1640;48.504;9.224;2024-01-27T15:23:15;6.70;56.30
3256;DHT22;1640;48.504;9.224;2024-01-27T15:25:43;6.60;55.40
3256;DHT22;1640;48.504;9.224;2024-01-27T15:28:10;6.60;55.80
3256;DHT22;1640;48.504;9.224;2024-01-27T15:30:38;6.50;53.70
3256;DHT22;1640;48.504;9.224;2024-01-27T15:33:08;6.40;52.70
3256;DHT22;1640;48.504;9.224;2024-01-27T15:35:37;6.50;52.10
3256;DHT22;1640;48.504;9.224;2024-01-27T15:38:04;6.50;53.30
3256;DHT22;1640;48.504;9.224;2024-01-27T15:40:31;6.50;51.70
3256;DHT22;1640;48.504;9.224;2024-01-27T15:42:59;6.50;49.50
3256;DHT22;1640;48.504;9.224;2024-01-27T15:45:26;6.40;49.80
3256;DHT22;1640;48.504;9.224;2024-01-27T15:47:54;6.20;46.60
3256;DHT22;1640;48.504;9.224;2024-01-27T15:50:22;6.10;43.30
3256;DHT22;1640;48.504;9.224;2024-01-27T15:52:55;6.10;41.90
3256;DHT22;1640;48.504;9.224;2024-01-27T15:55:23;6.00;41.30
3256;DHT22;1640;48.504;9.224;2024-01-27T15:57:54;5.80;37.30
3256;DHT22;1640;48.504;9.224;2024-01-27T16:00:22;5.70;32.30
3256;DHT22;1640;48.504;9.224;2024-01-27T16:02:49;5.50;26.60
3256;DHT22;1640;48.504;9.224;2024-01-27T16:05:17;5.40;23.30
3256;DHT22;1640;48.504;9.224;2024-01-27T16:07:45;5.20;20.00
3256;DHT22;1640;48.504;9.224;2024-01-27T16:10:14;5.10;16.70
3256;DHT22;1640;48.504;9.224;2024-01-27T16:12:42;5.00;14.10
3256;DHT22;1640;48.504;9.224;2024-01-27T16:15:09;4.90;13.90
3256;DHT22;1640;48.504;9.224;2024-01-27T16:17:38;4.80;12.10
3256;DHT22;1640;48.504;9.224;2024-01-27T16:20:06;4.60;8.90
3256;DHT22;1640;48.504;9.224;2024-01-27T16:22:34;4.50;5.10